Time;durP1;ratioP1;P1;durP2;ratioP2;P2;SDS_P1;SDS_P2;PMS_P1;PMS_P2;Temp;Humidity;BMP_temperature;BMP_pressure;BME280_temperature;BME280_humidity;BME280_pressure;Samples;Min_cycle;Max_cycle;Signal;HPM_P1;HPM_P2
2021/11/21 00:02:06;;;;;;;20.17;14.18;;;;;;;;;;4966220;28;20091;-68
2021/11/21 00:04:52;;;;;;;18.58;14.60;;;;;;;;;;4949733;28;20063;-66
2021/11/21 00:07:37;;;;;;;20.30;13.68;;;;;;;;;;4951926;28;20088;-66
2021/11/21 00:10:22;;;;;;;16.23;12.48;;;;;;;;;;4962820;28;20023;-66
2021/11/21 00:13:08;;;;;;;18.95;12.82;;;;;;;;;;4964238;28;20035;-65
2021/11/21 00:15:53;;;;;;;19.38;14.25;;;;;;;;;;4946046;28;20033;-70
2021/11/21 00:18:38;;;;;;;19.20;13.75;;;;;;;;;;4958023;28;20200;-71
2021/11/21 00:21:23;;;;;;;20.08;14.32;;;;;;;;;;4964289;28;20465;-73
2021/11/21 00:24:09;;;;;;;19.30;13.20;;;;;;;;;;4951213;28;20045;-72
2021/11/21 00:26:54;;;;;;;21.50;14.98;;;;;;;;;;4961843;28;20500;-71
2021/11/21 00:29:39;;;;;;;19.08;13.95;;;;;;;;;;4963887;28;20031;-73
2021/11/21 00:32:25;;;;;;;18.15;13.23;;;;;;;;;;4966119;28;20055;-66
2021/11/21 00:35:10;;;;;;;18.63;13.73;;;;;;;;;;4952447;28;20368;-67
2021/11/21 00:37:56;;;;;;;19.27;12.45;;;;;;;;;;4957449;28;20034;-66
2021/11/21 00:40:41;;;;;;;18.58;13.70;;;;;;;;;;4964977;28;20446;-66
2021/11/21 00:43:26;;;;;;;17.20;11.82;;;;;;;;;;4966089;28;20664;-67
2021/11/21 00:46:12;;;;;;;16.23;11.88;;;;;;;;;;4954152;28;20084;-65
2021/11/21 00:48:57;;;;;;;14.30;11.07;;;;;;;;;;4951737;28;20027;-68
2021/11/21 00:51:43;;;;;;;15.80;10.88;;;;;;;;;;4948082;28;20031;-67
2021/11/21 00:57:32;;;;;;;13.20;9.18;;;;;;;;;;4966199;28;20055;-67
2021/11/21 01:00:18;;;;;;;13.90;9.93;;;;;;;;;;4965218;28;20031;-67
2021/11/21 01:03:03;;;;;;;14.18;9.13;;;;;;;;;;4965855;28;20047;-67
2021/11/21 01:05:50;;;;;;;11.80;9.50;;;;;;;;;;4964569;28;20030;-68
2021/11/21 01:08:35;;;;;;;11.30;8.52;;;;;;;;;;4952799;28;20034;-67
2021/11/21 01:11:20;;;;;;;11.45;8.20;;;;;;;;;;4952120;28;20038;-65
2021/11/21 01:14:06;;;;;;;10.38;7.60;;;;;;;;;;4957119;28;20505;-67
2021/11/21 01:16:52;;;;;;;11.75;7.75;;;;;;;;;;4977292;28;20080;-68
2021/11/21 01:19:37;;;;;;;12.85;8.95;;;;;;;;;;4952689;28;20022;-66
2021/11/21 01:22:22;;;;;;;11.45;7.93;;;;;;;;;;4951547;28;20027;-65
2021/11/21 01:25:08;;;;;;;11.13;7.85;;;;;;;;;;4965576;28;20054;-69
2021/11/21 01:27:54;;;;;;;9.55;7.25;;;;;;;;;;4956303;28;20069;-66
2021/11/21 01:30:40;;;;;;;9.27;6.55;;;;;;;;;;4964169;28;20422;-70
2021/11/21 01:33:25;;;;;;;10.15;6.72;;;;;;;;;;4978819;28;20489;-73
2021/11/21 01:36:10;;;;;;;10.52;7.32;;;;;;;;;;4963853;28;20624;-71
2021/11/21 01:38:56;;;;;;;10.57;7.35;;;;;;;;;;4967475;28;20443;-71
2021/11/21 01:41:42;;;;;;;10.57;6.65;;;;;;;;;;4967876;28;20027;-70
2021/11/21 01:44:27;;;;;;;11.73;7.63;;;;;;;;;;4982316;28;20039;-71
2021/11/21 01:47:13;;;;;;;9.73;7.03;;;;;;;;;;4958145;28;20386;-65
2021/11/21 01:49:58;;;;;;;11.02;7.85;;;;;;;;;;4970110;28;20027;-65
2021/11/21 01:52:44;;;;;;;9.93;7.07;;;;;;;;;;4964195;28;20123;-65
2021/11/21 01:55:29;;;;;;;8.85;6.10;;;;;;;;;;4968696;28;20377;-66
2021/11/21 01:58:14;;;;;;;10.00;6.68;;;;;;;;;;4968165;28;20058;-65
2021/11/21 02:01:00;;;;;;;10.23;6.97;;;;;;;;;;4968612;28;20023;-65
2021/11/21 02:03:45;;;;;;;10.55;7.43;;;;;;;;;;4966871;28;20054;-65
2021/11/21 02:06:30;;;;;;;8.65;6.35;;;;;;;;;;4981915;28;20054;-68
2021/11/21 02:09:15;;;;;;;9.32;6.47;;;;;;;;;;4936746;28;20073;-67
2021/11/21 02:12:01;;;;;;;9.57;6.85;;;;;;;;;;4962646;28;20031;-67
2021/11/21 02:14:46;;;;;;;9.13;6.10;;;;;;;;;;4952300;28;20035;-68
2021/11/21 02:17:31;;;;;;;9.63;6.53;;;;;;;;;;4953271;28;20486;-68
2021/11/21 02:20:20;;;;;;;9.57;6.50;;;;;;;;;;4968297;28;20034;-68
2021/11/21 02:23:07;;;;;;;10.30;6.90;;;;;;;;;;4966218;28;20038;-62
2021/11/21 02:25:52;;;;;;;9.20;6.63;;;;;;;;;;4968989;28;20345;-66
2021/11/21 02:28:38;;;;;;;8.30;5.68;;;;;;;;;;4947904;28;20118;-62
2021/11/21 02:31:23;;;;;;;8.80;5.95;;;;;;;;;;4966767;28;20046;-61
2021/11/21 02:34:08;;;;;;;8.35;5.78;;;;;;;;;;4967338;28;20100;-65
2021/11/21 02:36:54;;;;;;;9.85;7.28;;;;;;;;;;4981168;28;20027;-63
2021/11/21 02:39:39;;;;;;;10.57;6.75;;;;;;;;;;4966446;28;20046;-68
2021/11/21 02:42:33;;;;;;;9.20;6.13;;;;;;;;;;4966578;28;20137;-67
2021/11/21 02:45:19;;;;;;;9.00;6.47;;;;;;;;;;4963783;28;20433;-67
2021/11/21 02:48:04;;;;;;;8.40;6.38;;;;;;;;;;4967711;28;20034;-69
2021/11/21 02:50:50;;;;;;;9.25;6.25;;;;;;;;;;4965854;28;20045;-70
2021/11/21 02:53:36;;;;;;;7.38;5.53;;;;;;;;;;4981278;28;20120;-68
2021/11/21 02:56:22;;;;;;;8.98;6.00;;;;;;;;;;4961775;28;20038;-67
2021/11/21 02:59:07;;;;;;;7.82;5.70;;;;;;;;;;4962651;28;20033;-67
2021/11/21 03:01:52;;;;;;;9.15;6.35;;;;;;;;;;4952505;28;20030;-65
2021/11/21 03:04:38;;;;;;;8.05;6.05;;;;;;;;;;4951429;28;20513;-61
2021/11/21 03:07:23;;;;;;;7.10;5.32;;;;;;;;;;4967788;28;20026;-61
2021/11/21 03:10:10;;;;;;;9.25;6.35;;;;;;;;;;4959496;28;20030;-63
2021/11/21 03:12:58;;;;;;;10.48;6.88;;;;;;;;;;4980260;28;20470;-61
2021/11/21 03:15:43;;;;;;;8.88;5.82;;;;;;;;;;4970460;28;20031;-66
2021/11/21 03:18:28;;;;;;;9.68;6.63;;;;;;;;;;4981105;28;20050;-68
2021/11/21 03:21:14;;;;;;;11.35;6.97;;;;;;;;;;4979122;28;20023;-66
2021/11/21 03:23:59;;;;;;;9.95;7.18;;;;;;;;;;4965953;28;20046;-66
2021/11/21 03:26:44;;;;;;;11.38;7.70;;;;;;;;;;4970905;28;20039;-65
2021/11/21 03:29:30;;;;;;;9.40;7.05;;;;;;;;;;4980958;28;20478;-67
2021/11/21 03:32:17;;;;;;;10.73;7.18;;;;;;;;;;4966053;28;20173;-68
2021/11/21 03:35:03;;;;;;;8.45;6.22;;;;;;;;;;4967045;28;20073;-66
2021/11/21 03:37:48;;;;;;;10.07;6.88;;;;;;;;;;4961538;28;20047;-66
2021/11/21 03:40:33;;;;;;;9.40;7.20;;;;;;;;;;4968302;28;20031;-66
2021/11/21 03:43:18;;;;;;;9.90;6.70;;;;;;;;;;4952989;28;20062;-67
2021/11/21 03:46:04;;;;;;;9.18;5.85;;;;;;;;;;4965938;28;20050;-68
2021/11/21 03:48:49;;;;;;;11.68;6.88;;;;;;;;;;4966876;28;20035;-66
2021/11/21 03:51:35;;;;;;;7.50;5.53;;;;;;;;;;4965897;28;20034;-66
2021/11/21 03:54:20;;;;;;;8.73;6.05;;;;;;;;;;4978391;28;20392;-69
2021/11/21 03:57:06;;;;;;;9.52;6.28;;;;;;;;;;4976789;28;20042;-71
2021/11/21 03:59:51;;;;;;;8.75;5.72;;;;;;;;;;4953649;28;20026;-66
2021/11/21 04:02:36;;;;;;;9.75;6.88;;;;;;;;;;4964908;28;20498;-65
2021/11/21 04:05:22;;;;;;;9.10;6.50;;;;;;;;;;4953532;28;20015;-66
2021/11/21 04:08:07;;;;;;;8.77;6.18;;;;;;;;;;4965631;28;20027;-68
2021/11/21 04:10:54;;;;;;;9.05;6.10;;;;;;;;;;4953342;28;20022;-67
2021/11/21 04:13:39;;;;;;;11.57;6.93;;;;;;;;;;4965143;28;20046;-66
2021/11/21 04:16:25;;;;;;;9.15;6.10;;;;;;;;;;4966327;28;20543;-66
2021/11/21 04:19:10;;;;;;;9.73;6.53;;;;;;;;;;4965583;28;20052;-66
2021/11/21 04:21:55;;;;;;;9.27;5.78;;;;;;;;;;4961293;28;20038;-65
2021/11/21 04:24:41;;;;;;;10.55;7.45;;;;;;;;;;4972737;28;20031;-67
2021/11/21 04:27:27;;;;;;;9.38;6.32;;;;;;;;;;4969477;28;20409;-65
2021/11/21 04:30:13;;;;;;;9.15;6.15;;;;;;;;;;4980227;28;20033;-64
2021/11/21 04:32:58;;;;;;;8.23;5.80;;;;;;;;;;4964419;28;20042;-70
2021/11/21 04:35:44;;;;;;;9.52;5.75;;;;;;;;;;4966387;28;20050;-73
2021/11/21 04:38:29;;;;;;;8.43;6.30;;;;;;;;;;5011456;28;20133;-73
2021/11/21 04:41:14;;;;;;;9.25;5.57;;;;;;;;;;4966495;28;20027;-71
2021/11/21 04:44:02;;;;;;;9.90;6.03;;;;;;;;;;4978350;28;20038;-72
2021/11/21 04:46:47;;;;;;;8.70;6.38;;;;;;;;;;4965947;28;20049;-71
2021/11/21 04:49:35;;;;;;;8.60;5.53;;;;;;;;;;4958096;28;20084;-65
2021/11/21 04:52:20;;;;;;;8.20;5.47;;;;;;;;;;4979875;23;20460;-63
2021/11/21 04:55:06;;;;;;;8.00;5.53;;;;;;;;;;4928213;28;20027;-63
2021/11/21 04:57:51;;;;;;;8.15;5.70;;;;;;;;;;4940059;29;20020;-62
2021/11/21 05:00:37;;;;;;;6.32;4.75;;;;;;;;;;4944438;28;20118;-62
2021/11/21 05:03:22;;;;;;;7.20;4.40;;;;;;;;;;4947582;28;20112;-62
2021/11/21 05:06:07;;;;;;;6.93;4.65;;;;;;;;;;4946196;28;20046;-68
2021/11/21 05:08:53;;;;;;;8.05;4.50;;;;;;;;;;4946454;28;20389;-68
2021/11/21 05:11:38;;;;;;;5.97;4.10;;;;;;;;;;4928390;29;20402;-64
2021/11/21 05:14:23;;;;;;;7.32;4.43;;;;;;;;;;4942275;28;20029;-63
2021/11/21 05:17:08;;;;;;;7.68;4.90;;;;;;;;;;4950074;28;20035;-64
2021/11/21 05:19:54;;;;;;;6.18;4.38;;;;;;;;;;4949389;28;20498;-64
2021/11/21 05:22:39;;;;;;;7.55;4.50;;;;;;;;;;4948544;28;20039;-63
2021/11/21 05:25:24;;;;;;;7.03;4.63;;;;;;;;;;4944860;28;20112;-64
2021/11/21 05:28:09;;;;;;;7.60;4.82;;;;;;;;;;4950674;28;20133;-61
2021/11/21 05:30:55;;;;;;;7.15;4.57;;;;;;;;;;4948134;28;20038;-62
2021/11/21 05:33:40;;;;;;;7.22;5.05;;;;;;;;;;4949963;28;20054;-64
2021/11/21 05:36:25;;;;;;;6.63;4.47;;;;;;;;;;4943763;28;20054;-64
2021/11/21 05:39:11;;;;;;;6.20;3.92;;;;;;;;;;4931301;29;20034;-63
2021/11/21 05:41:56;;;;;;;8.35;5.18;;;;;;;;;;4947104;28;20135;-62
2021/11/21 05:44:41;;;;;;;8.48;5.00;;;;;;;;;;4950172;28;20031;-68
2021/11/21 05:47:27;;;;;;;6.70;4.28;;;;;;;;;;4931620;28;20518;-67
2021/11/21 05:50:13;;;;;;;5.90;3.35;;;;;;;;;;4945987;29;20039;-65
2021/11/21 05:52:58;;;;;;;6.95;4.47;;;;;;;;;;4930866;29;20059;-64
2021/11/21 05:55:43;;;;;;;7.25;4.20;;;;;;;;;;4944036;28;20038;-65
2021/11/21 05:58:28;;;;;;;6.85;4.60;;;;;;;;;;4987222;28;20490;-69
2021/11/21 06:01:14;;;;;;;6.95;4.55;;;;;;;;;;4948719;28;20058;-63
2021/11/21 06:03:59;;;;;;;5.90;3.97;;;;;;;;;;4936689;28;20153;-63
2021/11/21 06:06:45;;;;;;;8.68;4.70;;;;;;;;;;4944521;28;20129;-65
2021/11/21 06:09:30;;;;;;;6.57;4.25;;;;;;;;;;4943705;29;20430;-65
2021/11/21 06:12:15;;;;;;;7.00;4.63;;;;;;;;;;4936918;28;20027;-64
2021/11/21 06:15:00;;;;;;;8.88;4.68;;;;;;;;;;4949060;29;20043;-65
2021/11/21 06:17:46;;;;;;;7.93;4.45;;;;;;;;;;4935132;28;20038;-64
2021/11/21 06:20:31;;;;;;;8.45;4.88;;;;;;;;;;4949779;29;20031;-68
2021/11/21 06:23:16;;;;;;;7.80;4.13;;;;;;;;;;4944447;28;20031;-66
2021/11/21 06:26:03;;;;;;;8.02;4.82;;;;;;;;;;4948409;28;20035;-65
2021/11/21 06:28:48;;;;;;;7.28;4.60;;;;;;;;;;4934117;28;20135;-62
2021/11/21 06:31:33;;;;;;;8.45;5.00;;;;;;;;;;4945206;29;20125;-63
2021/11/21 06:34:18;;;;;;;9.05;4.72;;;;;;;;;;4946593;28;20058;-64
2021/11/21 06:37:06;;;;;;;8.32;4.93;;;;;;;;;;4949335;29;20032;-64
2021/11/21 06:39:51;;;;;;;11.90;5.50;;;;;;;;;;4933243;29;20150;-63
2021/11/21 06:42:37;;;;;;;8.98;5.13;;;;;;;;;;4948439;28;20036;-65
2021/11/21 06:45:23;;;;;;;14.63;5.28;;;;;;;;;;4930433;28;20086;-67
2021/11/21 06:48:14;;;;;;;10.13;5.45;;;;;;;;;;4943926;28;20039;-65
2021/11/21 06:50:59;;;;;;;10.15;5.55;;;;;;;;;;4948729;29;20027;-65
2021/11/21 06:53:47;;;;;;;9.98;5.85;;;;;;;;;;4947900;28;20121;-64
2021/11/21 06:56:32;;;;;;;10.65;6.00;;;;;;;;;;5007230;28;20035;-64
2021/11/21 06:59:17;;;;;;;9.93;6.47;;;;;;;;;;4939215;28;20391;-66
2021/11/21 07:02:03;;;;;;;9.43;5.25;;;;;;;;;;4929939;28;20490;-65
2021/11/21 07:04:49;;;;;;;8.75;5.22;;;;;;;;;;4940218;28;20624;-63
2021/11/21 07:07:35;;;;;;;9.63;5.53;;;;;;;;;;4948427;28;20038;-64
2021/11/21 07:10:20;;;;;;;9.93;5.72;;;;;;;;;;4938021;28;20035;-64
2021/11/21 07:13:06;;;;;;;11.02;5.95;;;;;;;;;;4929655;29;20040;-64
2021/11/21 07:15:51;;;;;;;11.77;6.53;;;;;;;;;;4929141;28;20036;-64
2021/11/21 07:18:36;;;;;;;11.45;6.40;;;;;;;;;;4948508;29;20031;-62
2021/11/21 07:21:22;;;;;;;10.23;4.95;;;;;;;;;;4946888;29;20114;-61
2021/11/21 07:24:07;;;;;;;10.55;6.05;;;;;;;;;;4947022;29;20038;-61
2021/11/21 07:26:56;;;;;;;9.90;5.82;;;;;;;;;;4946932;28;20038;-61
2021/11/21 07:29:41;;;;;;;12.60;7.30;;;;;;;;;;4931065;28;20061;-66
2021/11/21 07:32:26;;;;;;;10.98;6.47;;;;;;;;;;4947464;28;20517;-61
2021/11/21 07:35:12;;;;;;;12.18;6.80;;;;;;;;;;4945722;28;20047;-66
2021/11/21 07:37:58;;;;;;;10.02;5.78;;;;;;;;;;4935327;28;20046;-65
2021/11/21 07:40:43;;;;;;;11.02;5.90;;;;;;;;;;4946901;28;20034;-64
2021/11/21 07:43:30;;;;;;;11.48;6.22;;;;;;;;;;4948028;28;20639;-62
2021/11/21 07:46:16;;;;;;;11.48;6.28;;;;;;;;;;4927004;28;20096;-62
2021/11/21 07:49:01;;;;;;;13.65;6.50;;;;;;;;;;4948038;29;20058;-60
2021/11/21 07:51:47;;;;;;;33.97;23.20;;;;;;;;;;4946716;28;20189;-63
2021/11/21 07:54:32;;;;;;;37.53;23.95;;;;;;;;;;4948163;28;20081;-66
2021/11/21 07:57:18;;;;;;;15.20;7.53;;;;;;;;;;4936439;28;20043;-61
2021/11/21 08:00:05;;;;;;;14.23;6.85;;;;;;;;;;4945537;29;20047;-62
2021/11/21 08:02:50;;;;;;;14.85;7.95;;;;;;;;;;4946181;28;20177;-63
2021/11/21 08:05:36;;;;;;;12.75;6.60;;;;;;;;;;4936684;28;20056;-63
2021/11/21 08:08:21;;;;;;;10.32;6.07;;;;;;;;;;4940437;29;20031;-62
2021/11/21 08:11:06;;;;;;;11.57;6.13;;;;;;;;;;4939679;28;20031;-63
2021/11/21 08:13:51;;;;;;;10.45;5.95;;;;;;;;;;4928268;28;20043;-63
2021/11/21 08:16:37;;;;;;;13.60;7.18;;;;;;;;;;4943658;28;20031;-63
2021/11/21 08:19:22;;;;;;;12.82;7.00;;;;;;;;;;4947692;28;20031;-62
2021/11/21 08:22:08;;;;;;;19.92;10.40;;;;;;;;;;4945870;28;20038;-63
2021/11/21 08:24:53;;;;;;;15.85;9.80;;;;;;;;;;4940129;29;20027;-67
2021/11/21 08:27:39;;;;;;;20.67;11.40;;;;;;;;;;4935831;28;20462;-64
2021/11/21 08:30:25;;;;;;;18.92;11.20;;;;;;;;;;4947619;28;20426;-64
2021/11/21 08:33:10;;;;;;;17.92;10.95;;;;;;;;;;4945986;28;20050;-65
2021/11/21 08:35:56;;;;;;;21.15;12.82;;;;;;;;;;4943861;28;20034;-64
2021/11/21 08:38:41;;;;;;;19.63;12.10;;;;;;;;;;4950324;28;20359;-67
2021/11/21 08:41:26;;;;;;;20.70;13.25;;;;;;;;;;4943977;29;20015;-63
2021/11/21 08:44:11;;;;;;;22.55;12.82;;;;;;;;;;4934985;28;21642;-64
2021/11/21 08:46:57;;;;;;;20.55;12.77;;;;;;;;;;4947464;28;20032;-66
2021/11/21 08:49:42;;;;;;;21.50;13.77;;;;;;;;;;4950011;28;20032;-63
2021/11/21 08:52:27;;;;;;;22.88;14.15;;;;;;;;;;4950545;28;20109;-65
2021/11/21 08:55:13;;;;;;;21.90;13.13;;;;;;;;;;4950793;28;20108;-64
2021/11/21 08:57:58;;;;;;;22.60;14.13;;;;;;;;;;4948991;28;20031;-62
2021/11/21 09:00:43;;;;;;;21.33;13.07;;;;;;;;;;4937198;28;20118;-63
2021/11/21 09:03:30;;;;;;;21.83;14.23;;;;;;;;;;4921330;28;20031;-64
2021/11/21 09:06:15;;;;;;;23.48;13.90;;;;;;;;;;4983797;28;20027;-63
2021/11/21 09:09:01;;;;;;;25.00;15.30;;;;;;;;;;4939799;28;20027;-66
2021/11/21 09:11:46;;;;;;;24.20;14.98;;;;;;;;;;4950569;29;20049;-68
2021/11/21 09:14:31;;;;;;;22.73;14.32;;;;;;;;;;4935868;28;20037;-65
2021/11/21 09:17:17;;;;;;;21.08;13.63;;;;;;;;;;4949611;29;20038;-68
2021/11/21 09:20:03;;;;;;;20.55;13.38;;;;;;;;;;4949696;28;20035;-66
2021/11/21 09:22:49;;;;;;;21.13;14.82;;;;;;;;;;4949832;28;20508;-67
2021/11/21 09:25:34;;;;;;;35.92;23.20;;;;;;;;;;4949270;28;20713;-61
2021/11/21 09:28:20;;;;;;;18.08;11.77;;;;;;;;;;4941643;28;20154;-67
2021/11/21 09:31:06;;;;;;;19.10;11.13;;;;;;;;;;4934305;28;20097;-67
2021/11/21 09:33:52;;;;;;;21.75;13.07;;;;;;;;;;4941949;29;20035;-66
2021/11/21 09:36:37;;;;;;;19.13;11.45;;;;;;;;;;4945670;28;20038;-66
2021/11/21 09:39:22;;;;;;;19.13;11.98;;;;;;;;;;4923067;28;20106;-66
2021/11/21 09:42:08;;;;;;;18.15;11.70;;;;;;;;;;4950038;28;20033;-63
2021/11/21 09:44:53;;;;;;;17.83;11.18;;;;;;;;;;4948356;28;20046;-72
2021/11/21 09:47:38;;;;;;;18.58;11.85;;;;;;;;;;4949966;28;20426;-67
2021/11/21 09:50:24;;;;;;;18.33;12.07;;;;;;;;;;4934407;28;20061;-66
2021/11/21 09:53:10;;;;;;;18.50;12.30;;;;;;;;;;4949663;28;20664;-65
2021/11/21 09:55:56;;;;;;;17.38;11.00;;;;;;;;;;4944511;28;20036;-67
2021/11/21 09:58:41;;;;;;;17.38;10.82;;;;;;;;;;4935534;28;20089;-67
2021/11/21 10:01:31;;;;;;;17.48;9.95;;;;;;;;;;4941243;28;20085;-70
2021/11/21 10:04:18;;;;;;;15.30;9.68;;;;;;;;;;4939562;28;20038;-64
2021/11/21 10:07:18;;;;;;;14.75;9.23;;;;;;;;;;4920999;28;20138;-63
2021/11/21 10:10:05;;;;;;;17.42;10.13;;;;;;;;;;4943535;29;20031;-64
2021/11/21 10:12:50;;;;;;;47.33;24.48;;;;;;;;;;4948568;28;20054;-63
2021/11/21 10:15:36;;;;;;;13.85;8.98;;;;;;;;;;4973975;28;20028;-64
2021/11/21 10:18:21;;;;;;;14.77;9.35;;;;;;;;;;4917456;29;20058;-63
2021/11/21 10:21:10;;;;;;;14.60;8.65;;;;;;;;;;4947589;28;20402;-69
2021/11/21 10:24:13;;;;;;;13.88;8.85;;;;;;;;;;5016263;28;20029;-67
2021/11/21 10:27:09;;;;;;;14.35;8.40;;;;;;;;;;4948627;28;20070;-68
2021/11/21 10:29:54;;;;;;;13.30;9.00;;;;;;;;;;4949192;29;20030;-67
2021/11/21 10:32:49;;;;;;;13.88;8.32;;;;;;;;;;4926830;28;20043;-67
2021/11/21 10:35:34;;;;;;;61.05;41.33;;;;;;;;;;4933846;29;20036;-66
2021/11/21 10:38:20;;;;;;;18.35;10.05;;;;;;;;;;4943386;28;20071;-64
2021/11/21 10:41:13;;;;;;;14.07;8.60;;;;;;;;;;4947818;28;20461;-66
2021/11/21 10:44:06;;;;;;;13.55;7.85;;;;;;;;;;4948105;28;20042;-67
2021/11/21 10:47:00;;;;;;;14.30;9.18;;;;;;;;;;4949309;29;20039;-66
2021/11/21 10:49:49;;;;;;;18.75;9.27;;;;;;;;;;4929949;29;20039;-67
2021/11/21 10:52:43;;;;;;;14.75;8.77;;;;;;;;;;4933817;28;20132;-66
2021/11/21 10:55:29;;;;;;;14.05;8.32;;;;;;;;;;4949090;28;20043;-66
2021/11/21 10:58:16;;;;;;;14.73;9.30;;;;;;;;;;4948309;28;20027;-63
2021/11/21 11:01:01;;;;;;;15.18;9.73;;;;;;;;;;4941239;28;20123;-64
2021/11/21 11:04:05;;;;;;;14.80;9.00;;;;;;;;;;4941436;28;20387;-63
2021/11/21 11:06:50;;;;;;;13.90;8.43;;;;;;;;;;4948226;29;20564;-63
2021/11/21 11:09:36;;;;;;;13.68;8.45;;;;;;;;;;4921500;28;20036;-63
2021/11/21 11:12:22;;;;;;;14.85;9.30;;;;;;;;;;4951375;28;20153;-64
2021/11/21 11:15:07;;;;;;;12.55;8.05;;;;;;;;;;4946888;28;20478;-69
2021/11/21 11:17:53;;;;;;;11.93;7.75;;;;;;;;;;4948837;28;20441;-63
2021/11/21 11:20:43;;;;;;;14.65;8.95;;;;;;;;;;4942410;29;20027;-61
2021/11/21 11:23:28;;;;;;;15.57;9.15;;;;;;;;;;4945174;28;20494;-62
2021/11/21 11:26:14;;;;;;;17.00;9.80;;;;;;;;;;4947096;28;20475;-62
2021/11/21 11:29:02;;;;;;;17.38;10.65;;;;;;;;;;4936969;28;20027;-61
2021/11/21 11:31:48;;;;;;;17.23;10.48;;;;;;;;;;4929429;28;20039;-62
2021/11/21 11:34:36;;;;;;;18.70;10.93;;;;;;;;;;4934204;28;20541;-62
2021/11/21 11:37:34;;;;;;;27.42;15.45;;;;;;;;;;4948505;28;20032;-65
2021/11/21 11:40:25;;;;;;;18.50;10.75;;;;;;;;;;4947348;28;20078;-65
2021/11/21 11:43:20;;;;;;;15.73;9.77;;;;;;;;;;4948171;28;20130;-65
2021/11/21 11:46:15;;;;;;;17.48;10.55;;;;;;;;;;4947708;28;20046;-67
2021/11/21 11:49:00;;;;;;;16.00;10.15;;;;;;;;;;4925416;28;20027;-65
2021/11/21 11:51:49;;;;;;;17.83;9.90;;;;;;;;;;4943299;28;20051;-65
2021/11/21 11:54:34;;;;;;;16.58;8.45;;;;;;;;;;4927355;29;20027;-62
2021/11/21 11:57:32;;;;;;;15.15;9.10;;;;;;;;;;4929013;29;20514;-62
2021/11/21 12:00:35;;;;;;;22.55;11.02;;;;;;;;;;4932037;28;20050;-62
2021/11/21 12:03:43;;;;;;;16.58;8.95;;;;;;;;;;4934595;28;20042;-62
2021/11/21 12:06:36;;;;;;;15.52;8.23;;;;;;;;;;4956734;28;20042;-60
2021/11/21 12:09:31;;;;;;;17.13;9.48;;;;;;;;;;4948048;28;20386;-61
2021/11/21 12:12:17;;;;;;;15.43;8.82;;;;;;;;;;4946978;28;20449;-63
2021/11/21 12:15:23;;;;;;;16.10;9.18;;;;;;;;;;4946282;28;20042;-66
2021/11/21 12:18:08;;;;;;;16.88;9.15;;;;;;;;;;4929167;28;20031;-66
2021/11/21 12:20:53;;;;;;;16.48;9.30;;;;;;;;;;4929930;28;20040;-66
2021/11/21 12:23:42;;;;;;;14.35;8.35;;;;;;;;;;4933212;28;20110;-66
2021/11/21 12:26:32;;;;;;;17.20;9.43;;;;;;;;;;4946090;28;20127;-66
2021/11/21 12:29:19;;;;;;;14.75;8.55;;;;;;;;;;4934720;28;20082;-67
2021/11/21 12:32:21;;;;;;;11.77;6.95;;;;;;;;;;4936330;28;20088;-62
2021/11/21 12:35:21;;;;;;;17.00;10.95;;;;;;;;;;4934255;28;20126;-61
2021/11/21 12:38:19;;;;;;;24.73;15.60;;;;;;;;;;4944427;28;20061;-62
2021/11/21 12:41:05;;;;;;;53.58;26.90;;;;;;;;;;4915554;29;20749;-62
2021/11/21 12:43:50;;;;;;;20.52;12.15;;;;;;;;;;4928210;29;20043;-62
2021/11/21 12:46:36;;;;;;;13.82;8.15;;;;;;;;;;4945411;28;20466;-63
2021/11/21 12:49:23;;;;;;;10.82;6.82;;;;;;;;;;4932981;29;20193;-63
2021/11/21 12:52:10;;;;;;;13.68;7.95;;;;;;;;;;4929757;28;20048;-64
2021/11/21 12:54:55;;;;;;;11.38;6.97;;;;;;;;;;4941715;29;20028;-65
2021/11/21 12:57:47;;;;;;;14.75;7.80;;;;;;;;;;4946421;28;20042;-65
2021/11/21 13:00:34;;;;;;;13.35;7.45;;;;;;;;;;4947627;28;20402;-66
2021/11/21 13:03:20;;;;;;;11.30;6.70;;;;;;;;;;4941474;28;20118;-66
2021/11/21 13:06:07;;;;;;;10.65;6.10;;;;;;;;;;4942594;29;20039;-66
2021/11/21 13:08:52;;;;;;;10.15;5.65;;;;;;;;;;4946833;28;20027;-71
2021/11/21 13:11:37;;;;;;;9.80;6.00;;;;;;;;;;4946673;28;20035;-70
2021/11/21 13:14:22;;;;;;;11.50;6.15;;;;;;;;;;4930072;28;20126;-70
2021/11/21 13:17:14;;;;;;;11.20;6.47;;;;;;;;;;4940145;28;20110;-72
2021/11/21 13:20:07;;;;;;;13.25;6.55;;;;;;;;;;4946136;28;20063;-70
2021/11/21 13:22:59;;;;;;;12.48;6.95;;;;;;;;;;4934655;29;20020;-70
2021/11/21 13:25:44;;;;;;;29.85;19.65;;;;;;;;;;4934225;29;20452;-61
2021/11/21 13:28:33;;;;;;;12.68;7.15;;;;;;;;;;4928996;28;20558;-63
2021/11/21 13:31:25;;;;;;;10.37;5.93;;;;;;;;;;4947573;28;20042;-61
2021/11/21 13:34:11;;;;;;;12.40;6.82;;;;;;;;;;4929028;28;20074;-62
2021/11/21 13:37:01;;;;;;;11.13;5.80;;;;;;;;;;4936588;28;20035;-63
2021/11/21 13:39:46;;;;;;;10.48;6.00;;;;;;;;;;4948520;28;20513;-56
2021/11/21 13:42:31;;;;;;;11.20;5.28;;;;;;;;;;4950619;28;20032;-59
2021/11/21 13:45:20;;;;;;;9.38;5.63;;;;;;;;;;4944197;28;20084;-57
2021/11/21 13:48:24;;;;;;;8.95;5.15;;;;;;;;;;4942933;29;20376;-58
2021/11/21 13:51:23;;;;;;;9.18;5.00;;;;;;;;;;4940661;28;20379;-61
2021/11/21 13:54:08;;;;;;;7.20;4.32;;;;;;;;;;4941395;29;20097;-59
2021/11/21 13:56:53;;;;;;;8.57;4.72;;;;;;;;;;4939998;29;20486;-58
2021/11/21 13:59:40;;;;;;;9.18;5.28;;;;;;;;;;4939588;28;20609;-58
2021/11/21 14:02:29;;;;;;;8.88;4.90;;;;;;;;;;4941417;29;20027;-60
2021/11/21 14:05:18;;;;;;;10.48;5.82;;;;;;;;;;4947238;28;20650;-69
2021/11/21 14:08:08;;;;;;;10.60;5.97;;;;;;;;;;4942844;28;20061;-71
2021/11/21 14:10:53;;;;;;;9.93;5.78;;;;;;;;;;4942512;28;20042;-71
2021/11/21 14:13:47;;;;;;;9.30;5.97;;;;;;;;;;4947963;29;20047;-68
2021/11/21 14:16:39;;;;;;;9.15;5.55;;;;;;;;;;4945148;28;20364;-66
2021/11/21 14:19:25;;;;;;;11.48;6.50;;;;;;;;;;4942035;28;20043;-67
2021/11/21 14:22:11;;;;;;;9.38;6.00;;;;;;;;;;4940734;28;20028;-66
2021/11/21 14:24:57;;;;;;;10.65;5.82;;;;;;;;;;4938511;28;20478;-64
2021/11/21 14:27:42;;;;;;;33.60;24.58;;;;;;;;;;4934954;28;20043;-64
2021/11/21 14:30:27;;;;;;;14.38;6.40;;;;;;;;;;4955776;28;20030;-62
2021/11/21 14:33:31;;;;;;;9.32;5.32;;;;;;;;;;4936728;29;20035;-63
2021/11/21 14:36:21;;;;;;;10.07;4.43;;;;;;;;;;4945560;28;20110;-63
2021/11/21 14:39:10;;;;;;;7.57;4.60;;;;;;;;;;4943269;28;20065;-63
2021/11/21 14:42:03;;;;;;;7.57;4.32;;;;;;;;;;4946824;28;20035;-63
2021/11/21 14:44:49;;;;;;;7.90;4.78;;;;;;;;;;4948548;29;20077;-64
2021/11/21 14:47:34;;;;;;;8.27;4.80;;;;;;;;;;4943569;28;20037;-65
2021/11/21 14:50:20;;;;;;;8.32;4.68;;;;;;;;;;4945762;29;20019;-64
2021/11/21 14:53:07;;;;;;;6.60;3.88;;;;;;;;;;4948085;28;20059;-64
2021/11/21 14:55:59;;;;;;;6.22;4.07;;;;;;;;;;4959078;28;20443;-63
2021/11/21 14:58:46;;;;;;;7.07;4.35;;;;;;;;;;4944945;28;20710;-62
2021/11/21 15:01:32;;;;;;;8.27;4.53;;;;;;;;;;4949033;29;20264;-62
2021/11/21 15:04:17;;;;;;;8.30;4.57;;;;;;;;;;4933660;28;20055;-62
2021/11/21 15:07:03;;;;;;;9.00;4.32;;;;;;;;;;4945199;28;20031;-63
2021/11/21 15:09:48;;;;;;;5.38;3.67;;;;;;;;;;4948953;28;20386;-65
2021/11/21 15:12:34;;;;;;;7.82;4.93;;;;;;;;;;4947463;28;20043;-67
2021/11/21 15:15:19;;;;;;;7.25;3.85;;;;;;;;;;4939741;28;20035;-64
2021/11/21 15:18:04;;;;;;;6.82;4.22;;;;;;;;;;4944440;28;20035;-67
2021/11/21 15:20:49;;;;;;;7.63;4.30;;;;;;;;;;4948347;28;20490;-71
2021/11/21 15:23:36;;;;;;;5.78;3.50;;;;;;;;;;4934528;29;20061;-70
2021/11/21 15:26:22;;;;;;;7.18;4.15;;;;;;;;;;4989762;28;20065;-69
2021/11/21 15:29:08;;;;;;;6.18;4.22;;;;;;;;;;4945058;28;20055;-71
2021/11/21 15:31:53;;;;;;;6.90;4.22;;;;;;;;;;4945852;29;20047;-65
2021/11/21 15:34:39;;;;;;;7.90;3.83;;;;;;;;;;4932696;28;20268;-64
2021/11/21 15:37:25;;;;;;;18.88;12.32;;;;;;;;;;4946969;28;20142;-67
2021/11/21 15:40:11;;;;;;;13.35;9.02;;;;;;;;;;4946909;28;20031;-69
2021/11/21 15:42:56;;;;;;;8.02;4.93;;;;;;;;;;4943859;29;20066;-66
2021/11/21 15:45:42;;;;;;;7.13;4.18;;;;;;;;;;4946190;28;20035;-65
2021/11/21 15:48:29;;;;;;;7.38;4.45;;;;;;;;;;4946751;28;20048;-67
2021/11/21 15:51:14;;;;;;;7.25;4.43;;;;;;;;;;4943875;29;20035;-64
2021/11/21 15:53:59;;;;;;;7.30;4.25;;;;;;;;;;4931444;28;20501;-63
2021/11/21 15:56:47;;;;;;;6.78;4.10;;;;;;;;;;4933776;28;20035;-63
2021/11/21 15:59:33;;;;;;;8.52;4.57;;;;;;;;;;4946801;28;20055;-61
2021/11/21 16:02:18;;;;;;;8.13;4.10;;;;;;;;;;4947885;28;20039;-64
2021/11/21 16:05:03;;;;;;;6.57;4.38;;;;;;;;;;4943775;28;20060;-62
2021/11/21 16:07:49;;;;;;;7.00;4.47;;;;;;;;;;4946008;29;20031;-62
2021/11/21 16:10:34;;;;;;;6.22;3.78;;;;;;;;;;4945436;28;20042;-64
2021/11/21 16:13:19;;;;;;;6.32;4.15;;;;;;;;;;4943242;28;20051;-64
2021/11/21 16:16:04;;;;;;;7.57;4.30;;;;;;;;;;4931005;28;20043;-64
2021/11/21 16:18:50;;;;;;;20.23;13.90;;;;;;;;;;4944478;29;20039;-67
2021/11/21 16:21:35;;;;;;;11.52;6.25;;;;;;;;;;4941445;28;20031;-64
2021/11/21 16:24:21;;;;;;;7.25;4.55;;;;;;;;;;4946035;28;20031;-65
2021/11/21 16:27:06;;;;;;;6.03;4.13;;;;;;;;;;4928662;28;20069;-61
2021/11/21 16:29:53;;;;;;;7.53;4.43;;;;;;;;;;4942418;28;20046;-63
2021/11/21 16:32:38;;;;;;;7.53;3.47;;;;;;;;;;4945001;28;20027;-65